Time;durP1;ratioP1;P1;durP2;ratioP2;P2;SDS_P1;SDS_P2;PMS_P1;PMS_P2;Temp;Humidity;BMP_temperature;BMP_pressure;BME280_temperature;BME280_humidity;BME280_pressure;Samples;Min_cycle;Max_cycle;Signal;HPM_P1;HPM_P2
2023/10/10 00:00:57;;;;;;;8.80;2.85;;;14.90;99.90;;;;;;4228234;28;20018;-81
2023/10/10 00:02:58;;;;;;;6.13;3.25;;;14.90;99.90;;;;;;4230136;28;20044;-81
2023/10/10 00:05:08;;;;;;;8.75;3.70;;;14.90;99.90;;;;;;4217250;28;20773;-81
2023/10/10 00:07:11;;;;;;;9.73;3.25;;;14.90;99.90;;;;;;4228449;28;20046;-81
2023/10/10 00:09:12;;;;;;;6.07;2.53;;;14.90;99.90;;;;;;4200577;28;20079;-81
2023/10/10 00:11:18;;;;;;;8.05;2.88;;;15.10;99.90;;;;;;4229687;28;20078;-82
2023/10/10 00:13:19;;;;;;;8.20;2.47;;;14.90;99.90;;;;;;4220203;28;20044;-81
2023/10/10 00:15:25;;;;;;;4.30;2.58;;;14.90;99.90;;;;;;4231739;28;20480;-81
2023/10/10 00:17:34;;;;;;;7.13;2.90;;;14.90;99.90;;;;;;4230137;28;20089;-82
2023/10/10 00:19:45;;;;;;;4.97;2.70;;;14.90;99.90;;;;;;4223286;28;20048;-82
2023/10/10 00:21:53;;;;;;;5.55;3.28;;;14.90;99.90;;;;;;4222304;28;20062;-81
2023/10/10 00:23:55;;;;;;;6.45;3.05;;;14.90;99.90;;;;;;4232297;28;20524;-81
2023/10/10 00:25:57;;;;;;;7.78;3.20;;;14.90;99.90;;;;;;4231924;28;20479;-81
2023/10/10 00:28:17;;;;;;;8.95;3.22;;;14.90;99.90;;;;;;4230701;28;20046;-81
2023/10/10 00:30:22;;;;;;;4.50;2.83;;;14.90;99.90;;;;;;4231780;28;20090;-81
2023/10/10 00:32:25;;;;;;;10.68;3.10;;;14.90;99.90;;;;;;4213431;28;20048;-83
2023/10/10 00:34:33;;;;;;;4.65;3.28;;;14.90;99.90;;;;;;4231294;28;20079;-81
2023/10/10 00:36:35;;;;;;;17.75;3.25;;;14.90;99.90;;;;;;4231573;28;20434;-81
2023/10/10 00:38:36;;;;;;;12.30;3.53;;;14.90;99.90;;;;;;4217185;28;20051;-81
2023/10/10 00:40:39;;;;;;;10.82;3.63;;;14.90;99.90;;;;;;4213400;28;20141;-81
2023/10/10 00:42:43;;;;;;;10.27;3.50;;;14.90;99.90;;;;;;4213445;28;20134;-81
2023/10/10 00:44:44;;;;;;;8.18;3.95;;;14.90;99.90;;;;;;4213338;28;20484;-81
2023/10/10 00:46:51;;;;;;;8.32;3.42;;;14.90;99.90;;;;;;4213339;28;20048;-81
2023/10/10 00:49:00;;;;;;;9.90;3.72;;;14.90;99.90;;;;;;4213570;28;20058;-81
2023/10/10 00:51:06;;;;;;;11.32;4.15;;;14.90;99.90;;;;;;4213054;28;20056;-81
2023/10/10 00:53:11;;;;;;;7.75;3.97;;;14.80;99.90;;;;;;4196516;28;20072;-81
2023/10/10 00:55:12;;;;;;;12.73;5.18;;;14.80;99.90;;;;;;4229970;28;20123;-81
2023/10/10 00:57:14;;;;;;;14.02;4.63;;;14.80;99.90;;;;;;4214463;28;20048;-81
2023/10/10 00:59:16;;;;;;;7.57;4.13;;;14.80;99.90;;;;;;4213018;28;20161;-81
2023/10/10 01:01:19;;;;;;;10.40;3.95;;;14.90;99.90;;;;;;4212718;28;20520;-81
2023/10/10 01:03:20;;;;;;;8.77;4.07;;;14.90;99.90;;;;;;4214303;28;20095;-81
2023/10/10 01:05:24;;;;;;;10.10;4.30;;;14.90;99.90;;;;;;4196654;28;20087;-81
2023/10/10 01:07:26;;;;;;;11.13;4.57;;;14.90;99.90;;;;;;4214577;28;20391;-81
2023/10/10 01:09:35;;;;;;;13.43;4.32;;;14.80;99.90;;;;;;4213061;28;20122;-81
2023/10/10 01:11:35;;;;;;;10.70;5.07;;;14.90;99.90;;;;;;4213841;28;20047;-82
2023/10/10 01:13:36;;;;;;;8.95;4.72;;;14.90;99.90;;;;;;4231212;28;20038;-82
2023/10/10 01:15:38;;;;;;;8.75;3.75;;;14.80;99.90;;;;;;4230055;28;20047;-82
2023/10/10 01:17:38;;;;;;;7.43;4.30;;;14.90;99.90;;;;;;4229919;28;20484;-81
2023/10/10 01:19:44;;;;;;;13.90;4.15;;;14.80;99.90;;;;;;4230804;28;20131;-81
2023/10/10 01:21:50;;;;;;;7.32;3.67;;;14.80;99.90;;;;;;4229712;28;20471;-81
2023/10/10 01:23:52;;;;;;;10.25;4.35;;;14.90;99.90;;;;;;4212793;28;20133;-81
2023/10/10 01:25:55;;;;;;;7.28;3.83;;;14.80;99.90;;;;;;4229879;28;20098;-81
2023/10/10 01:28:05;;;;;;;6.90;3.88;;;14.80;99.90;;;;;;4212890;28;20044;-81
2023/10/10 01:32:38;;;;;;;11.63;4.45;;;14.80;99.90;;;;;;4196525;28;20068;-81
2023/10/10 01:34:45;;;;;;;8.43;4.22;;;14.90;99.90;;;;;;4214123;28;20040;-81
2023/10/10 01:36:50;;;;;;;8.88;3.67;;;14.90;99.90;;;;;;4214419;28;20036;-81
2023/10/10 01:38:59;;;;;;;9.50;3.85;;;14.80;99.90;;;;;;4214025;28;20063;-81
2023/10/10 01:41:05;;;;;;;14.05;4.60;;;14.90;99.90;;;;;;4214303;28;20404;-81
2023/10/10 01:43:10;;;;;;;12.55;4.30;;;14.90;99.90;;;;;;4214147;28;20051;-81
2023/10/10 01:45:17;;;;;;;9.50;4.38;;;14.80;99.90;;;;;;4213569;28;20089;-81
2023/10/10 01:47:26;;;;;;;7.38;3.45;;;14.80;99.90;;;;;;4212617;28;20553;-82
2023/10/10 01:49:29;;;;;;;9.15;4.03;;;14.90;99.90;;;;;;4217169;28;20120;-81
2023/10/10 01:51:33;;;;;;;10.15;4.18;;;14.90;99.90;;;;;;4212535;28;20056;-81
2023/10/10 01:53:40;;;;;;;10.75;4.50;;;14.90;99.90;;;;;;4213904;28;20051;-81
2023/10/10 01:55:41;;;;;;;6.13;3.40;;;14.90;99.90;;;;;;4212525;28;20062;-81
2023/10/10 01:57:42;;;;;;;10.65;3.67;;;14.90;99.90;;;;;;4226470;28;20635;-81
2023/10/10 01:59:43;;;;;;;8.35;3.58;;;14.90;99.90;;;;;;4233902;28;20052;-81
2023/10/10 02:01:45;;;;;;;9.25;4.22;;;14.90;99.90;;;;;;4234145;28;20403;-81
2023/10/10 02:03:47;;;;;;;10.25;4.07;;;14.90;99.90;;;;;;4234139;28;20119;-81
2023/10/10 02:05:52;;;;;;;8.20;4.03;;;14.90;99.90;;;;;;4229264;28;20050;-81
2023/10/10 02:07:53;;;;;;;13.02;3.83;;;14.90;99.90;;;;;;4232437;28;20054;-81
2023/10/10 02:10:00;;;;;;;8.05;3.53;;;14.90;99.90;;;;;;4232912;28;20496;-81
2023/10/10 02:12:17;;;;;;;8.85;3.80;;;14.90;99.90;;;;;;4233728;28;20048;-82
2023/10/10 02:14:19;;;;;;;8.85;3.78;;;14.90;99.90;;;;;;4233887;28;20035;-81
2023/10/10 02:16:35;;;;;;;10.90;3.95;;;15.00;99.90;;;;;;4233665;28;20488;-81
2023/10/10 02:18:51;;;;;;;12.02;4.18;;;15.00;99.90;;;;;;4233981;28;20078;-81
2023/10/10 02:20:52;;;;;;;7.88;3.95;;;15.00;99.90;;;;;;4216861;28;20515;-81
2023/10/10 02:22:54;;;;;;;7.90;3.72;;;15.00;99.90;;;;;;4221832;28;20044;-81
2023/10/10 02:27:19;;;;;;;;;;;15.00;99.90;;;;;;4234239;28;20081;-81
2023/10/10 02:31:33;;;;;;;8.80;3.97;;;15.00;99.90;;;;;;4233628;28;20048;-81
2023/10/10 02:33:37;;;;;;;9.57;4.07;;;15.00;99.90;;;;;;4233761;28;20035;-81
2023/10/10 02:35:54;;;;;;;9.80;4.22;;;15.00;99.90;;;;;;4233588;28;20042;-81
2023/10/10 02:37:55;;;;;;;9.95;4.65;;;15.00;99.90;;;;;;4233495;27;20119;-82
2023/10/10 02:40:14;;;;;;;7.30;4.65;;;15.00;99.90;;;;;;4227058;28;20082;-82
2023/10/10 02:42:19;;;;;;;8.63;3.72;;;15.00;99.90;;;;;;4233094;28;20055;-82
2023/10/10 02:44:26;;;;;;;11.95;4.07;;;15.00;99.90;;;;;;4232239;28;20122;-82
2023/10/10 02:46:35;;;;;;;7.53;3.65;;;15.00;99.90;;;;;;4233277;28;20044;-82
2023/10/10 02:48:42;;;;;;;10.73;4.45;;;15.00;99.90;;;;;;4233176;28;20118;-82
2023/10/10 02:50:44;;;;;;;8.05;3.83;;;15.00;99.90;;;;;;4231628;28;20068;-82
2023/10/10 02:52:47;;;;;;;12.07;4.95;;;15.00;99.90;;;;;;4233035;28;20101;-82
2023/10/10 02:54:54;;;;;;;9.40;4.68;;;15.00;99.90;;;;;;4227282;28;20039;-82
2023/10/10 02:57:47;;;;;;;12.50;4.97;;;15.00;99.90;;;;;;4232623;28;20043;-82
2023/10/10 02:59:38;;;;;;;8.95;3.55;;;15.00;99.90;;;;;;4218306;28;20052;-82
2023/10/10 03:01:57;;;;;;;15.00;4.65;;;15.00;99.90;;;;;;4232110;28;20032;-82
2023/10/10 03:03:58;;;;;;;12.20;4.32;;;15.00;99.90;;;;;;4231961;28;20114;-82
2023/10/10 03:05:58;;;;;;;15.60;4.60;;;15.00;99.90;;;;;;4231251;28;20081;-82
2023/10/10 03:07:59;;;;;;;9.43;4.28;;;15.00;99.90;;;;;;4232897;28;20050;-82
2023/10/10 03:12:17;;;;;;;10.25;4.40;;;15.00;99.90;;;;;;4219628;28;20166;-82
2023/10/10 03:14:26;;;;;;;9.50;4.15;;;15.10;99.90;;;;;;4216297;28;20040;-82
2023/10/10 03:18:28;;;;;;;10.68;4.20;;;15.10;99.90;;;;;;4219619;28;19920;-82
2023/10/10 03:22:52;;;;;;;9.38;3.85;;;15.10;99.90;;;;;;4219777;28;20127;-82
2023/10/10 03:29:50;;;;;;;12.55;5.78;;;15.10;99.90;;;;;;4203226;28;20141;-82
2023/10/10 03:32:19;;;;;;;20.15;5.93;;;15.10;99.90;;;;;;4215570;28;20050;-81
2023/10/10 05:23:34;;;;;;;11.15;5.60;;;15.00;99.90;;;;;;4222545;28;20098;-82
2023/10/10 05:25:37;;;;;;;11.73;5.10;;;15.00;99.90;;;;;;4229850;28;20040;-82
2023/10/10 05:27:41;;;;;;;11.70;5.35;;;15.00;99.90;;;;;;4248099;28;20051;-82
2023/10/10 05:29:43;;;;;;;12.98;6.30;;;15.00;99.90;;;;;;4230591;28;20044;-82
2023/10/10 05:31:44;;;;;;;16.80;6.30;;;15.00;99.90;;;;;;4230546;28;20054;-82
2023/10/10 05:33:47;;;;;;;16.50;7.05;;;15.00;99.90;;;;;;4233972;28;20043;-82
2023/10/10 05:35:57;;;;;;;13.20;6.40;;;15.00;99.90;;;;;;4234462;28;20127;-82
2023/10/10 05:38:00;;;;;;;13.43;6.30;;;15.00;99.90;;;;;;4234463;28;20479;-82
2023/10/10 05:40:01;;;;;;;14.05;6.57;;;15.00;99.90;;;;;;4222696;28;20039;-82
2023/10/10 05:42:04;;;;;;;11.80;5.97;;;15.00;99.90;;;;;;4251392;27;20119;-82
2023/10/10 05:44:07;;;;;;;20.63;7.82;;;15.00;99.90;;;;;;4251224;27;20372;-82
2023/10/10 05:46:08;;;;;;;17.45;8.45;;;15.00;99.90;;;;;;4251180;27;20039;-82
2023/10/10 05:48:09;;;;;;;18.45;7.35;;;15.00;99.90;;;;;;4244248;27;20107;-81
2023/10/10 05:50:10;;;;;;;18.10;6.65;;;15.00;99.90;;;;;;4241200;27;20087;-81
2023/10/10 05:52:12;;;;;;;13.57;7.57;;;15.00;99.90;;;;;;4248574;27;20031;-81
2023/10/10 05:54:12;;;;;;;15.80;8.18;;;15.00;99.90;;;;;;4239049;27;20043;-81
2023/10/10 05:56:13;;;;;;;18.05;9.00;;;15.00;99.90;;;;;;4250510;27;20078;-81
2023/10/10 05:58:15;;;;;;;23.27;8.57;;;15.00;99.90;;;;;;4250501;27;20172;-81
2023/10/10 06:00:16;;;;;;;18.27;8.93;;;15.00;99.90;;;;;;4241864;27;20418;-82
2023/10/10 06:02:17;;;;;;;20.15;8.82;;;15.00;99.90;;;;;;4232658;28;20100;-82
2023/10/10 06:04:17;;;;;;;20.27;10.15;;;15.00;99.90;;;;;;4251285;27;20043;-82
2023/10/10 06:06:18;;;;;;;22.13;10.60;;;15.00;99.90;;;;;;4244753;27;20047;-82
2023/10/10 06:08:20;;;;;;;23.67;10.07;;;15.00;99.90;;;;;;4251046;27;20047;-82
2023/10/10 06:10:24;;;;;;;22.90;10.05;;;15.00;99.90;;;;;;4251023;27;20114;-82
2023/10/10 06:12:28;;;;;;;26.05;11.13;;;15.00;99.90;;;;;;4248774;27;20095;-82
2023/10/10 06:14:29;;;;;;;25.48;12.05;;;15.00;99.90;;;;;;4234799;27;20043;-82
2023/10/10 06:16:30;;;;;;;26.65;11.13;;;15.00;99.90;;;;;;4244399;27;20053;-82
2023/10/10 06:18:31;;;;;;;27.17;11.98;;;15.00;99.90;;;;;;4245104;27;20043;-82
2023/10/10 06:20:32;;;;;;;27.52;11.82;;;15.10;99.90;;;;;;4232151;28;20055;-82
2023/10/10 06:22:33;;;;;;;25.92;12.02;;;15.10;99.90;;;;;;4239125;27;20620;-82
2023/10/10 06:24:33;;;;;;;27.95;12.77;;;15.10;99.90;;;;;;4226333;28;20035;-82
2023/10/10 06:26:36;;;;;;;30.48;11.90;;;15.10;99.90;;;;;;4204335;28;20048;-84
2023/10/10 06:28:45;;;;;;;39.13;14.77;;;15.10;99.90;;;;;;4233149;27;20032;-83
2023/10/10 06:30:46;;;;;;;28.57;12.47;;;15.10;99.90;;;;;;4248152;27;20040;-83
2023/10/10 06:33:08;;;;;;;28.63;13.70;;;15.10;99.90;;;;;;4250577;27;20318;-83
2023/10/10 06:37:18;;;;;;;31.52;12.65;;;15.10;99.90;;;;;;4250439;27;20051;-83
2023/10/10 06:39:19;;;;;;;31.38;13.27;;;15.10;99.90;;;;;;4249727;27;20125;-83
2023/10/10 06:41:22;;;;;;;35.65;13.75;;;15.10;99.90;;;;;;4250599;27;20372;-84
2023/10/10 06:43:23;;;;;;;33.15;12.93;;;15.10;99.90;;;;;;4244286;27;20050;-84
2023/10/10 06:45:26;;;;;;;27.20;12.32;;;15.10;99.90;;;;;;4242607;27;20078;-84
2023/10/10 06:47:28;;;;;;;27.98;12.55;;;15.20;99.90;;;;;;4238790;27;20052;-85
2023/10/10 06:49:43;;;;;;;31.17;12.25;;;15.10;99.90;;;;;;4215042;28;20127;-84
2023/10/10 06:51:44;;;;;;;30.77;12.32;;;15.20;99.90;;;;;;4233531;28;20062;-84
2023/10/10 06:53:45;;;;;;;30.05;11.90;;;15.20;99.90;;;;;;4233162;28;20075;-83
2023/10/10 06:55:47;;;;;;;31.58;12.75;;;15.20;99.90;;;;;;4233283;28;20040;-83
2023/10/10 06:57:59;;;;;;;29.63;12.23;;;15.20;99.90;;;;;;4214788;28;20040;-83
2023/10/10 07:00:01;;;;;;;25.98;11.98;;;15.30;99.90;;;;;;4215041;28;20131;-83
2023/10/10 07:02:13;;;;;;;27.27;11.63;;;15.30;99.90;;;;;;4233243;28;20055;-83
2023/10/10 07:04:15;;;;;;;31.13;12.85;;;15.30;99.90;;;;;;4233124;28;20115;-84
2023/10/10 07:06:20;;;;;;;26.35;11.70;;;15.30;99.90;;;;;;4233312;28;20116;-84
2023/10/10 07:08:24;;;;;;;29.45;11.63;;;15.40;99.90;;;;;;4233253;28;20047;-85
2023/10/10 07:10:32;;;;;;;30.05;11.88;;;15.30;99.90;;;;;;4232504;28;20050;-85
2023/10/10 07:12:34;;;;;;;23.88;10.95;;;15.40;99.90;;;;;;4232895;28;20123;-84
2023/10/10 07:14:40;;;;;;;27.98;11.77;;;15.40;99.90;;;;;;4232827;28;20085;-84
2023/10/10 07:16:44;;;;;;;25.13;11.43;;;15.40;99.90;;;;;;4232814;28;20100;-85
2023/10/10 07:18:45;;;;;;;26.80;11.35;;;15.50;99.90;;;;;;4232782;28;20047;-83
2023/10/10 07:23:07;;;;;;;26.50;11.68;;;15.60;99.90;;;;;;4232900;28;20432;-84
2023/10/10 07:27:30;;;;;;;23.42;9.85;;;15.70;99.90;;;;;;4241928;27;20071;-83
2023/10/10 07:29:57;;;;;;;24.60;10.82;;;15.70;99.90;;;;;;4249569;27;20479;-83
2023/10/10 07:31:53;;;;;;;25.02;10.88;;;15.70;99.90;;;;;;4249487;27;20043;-83
2023/10/10 07:33:55;;;;;;;25.33;10.25;;;15.80;99.90;;;;;;4249681;27;20031;-83
2023/10/10 07:35:56;;;;;;;26.70;10.55;;;15.90;99.90;;;;;;4249869;27;20061;-83
2023/10/10 07:37:59;;;;;;;23.15;10.60;;;15.90;99.90;;;;;;4244296;27;20043;-84
2023/10/10 07:42:23;;;;;;;18.52;9.93;;;16.00;99.90;;;;;;4249599;27;20108;-83
2023/10/10 07:44:30;;;;;;;16.00;9.20;;;16.00;99.90;;;;;;4231180;27;20035;-83
2023/10/10 07:46:35;;;;;;;18.33;9.38;;;16.10;99.90;;;;;;4249137;27;20464;-83
2023/10/10 07:50:48;;;;;;;16.98;8.98;;;16.20;99.90;;;;;;4230288;28;20131;-83
2023/10/10 07:52:49;;;;;;;17.30;8.23;;;16.20;99.90;;;;;;4232316;28;20412;-84
2023/10/10 07:55:01;;;;;;;19.42;9.18;;;16.30;99.90;;;;;;4231126;28;20054;-84
2023/10/10 07:57:07;;;;;;;18.77;9.65;;;16.40;99.90;;;;;;4214566;28;20052;-83
2023/10/10 07:59:08;;;;;;;22.17;11.60;;;16.40;99.90;;;;;;4232892;28;20047;-83
2023/10/10 08:01:10;;;;;;;23.30;12.70;;;16.50;99.90;;;;;;4232208;28;20532;-84
2023/10/10 08:03:20;;;;;;;19.50;10.77;;;16.40;99.90;;;;;;4231231;28;20057;-84
2023/10/10 08:05:21;;;;;;;24.35;12.55;;;16.40;99.90;;;;;;4232359;28;20555;-83
2023/10/10 08:07:26;;;;;;;24.67;11.93;;;16.40;99.90;;;;;;4232046;28;20043;-84
2023/10/10 08:09:29;;;;;;;32.08;13.25;;;16.40;99.90;;;;;;4229501;28;20151;-84
2023/10/10 08:11:36;;;;;;;31.85;12.88;;;16.40;99.90;;;;;;4232162;28;20047;-84
2023/10/10 08:13:36;;;;;;;27.50;14.25;;;16.40;99.90;;;;;;4232182;28;20065;-84
2023/10/10 08:16:02;;;;;;;28.15;13.65;;;16.40;99.90;;;;;;4232065;27;20079;-83
2023/10/10 08:18:04;;;;;;;35.95;13.55;;;16.50;99.90;;;;;;4232105;28;20101;-83
2023/10/10 08:20:31;;;;;;;26.98;13.68;;;16.50;99.90;;;;;;4232070;28;20430;-83
2023/10/10 08:22:25;;;;;;;32.00;14.32;;;16.50;99.90;;;;;;4231529;28;20409;-83
2023/10/10 08:24:27;;;;;;;36.22;15.77;;;16.50;99.90;;;;;;4230636;28;20050;-84
2023/10/10 08:26:29;;;;;;;34.58;14.60;;;16.50;99.90;;;;;;4230740;28;20045;-83
2023/10/10 08:28:29;;;;;;;33.95;14.48;;;16.60;99.90;;;;;;4230705;28;20071;-84
2023/10/10 08:30:31;;;;;;;27.35;13.57;;;16.60;99.90;;;;;;4231791;28;20051;-84
2023/10/10 08:32:32;;;;;;;30.33;14.73;;;16.60;99.90;;;;;;4230397;28;20119;-83
2023/10/10 08:34:38;;;;;;;32.15;14.77;;;16.70;99.90;;;;;;4231702;28;20089;-83
2023/10/10 08:36:43;;;;;;;33.47;14.13;;;16.70;99.90;;;;;;4231563;28;20051;-84
2023/10/10 08:38:44;;;;;;;31.30;14.30;;;16.70;99.90;;;;;;4230219;28;20123;-83
2023/10/10 08:40:48;;;;;;;34.33;14.32;;;16.80;99.90;;;;;;4230261;28;20511;-83
2023/10/10 08:42:50;;;;;;;31.75;15.88;;;16.80;99.90;;;;;;4232012;28;20071;-83
2023/10/10 08:44:55;;;;;;;35.72;14.85;;;16.80;99.90;;;;;;4231280;28;20123;-84
2023/10/10 08:46:59;;;;;;;31.67;15.07;;;16.90;99.90;;;;;;4231483;28;20043;-83
2023/10/10 08:49:04;;;;;;;30.02;15.00;;;17.00;99.90;;;;;;4231196;28;20075;-83
2023/10/10 08:51:05;;;;;;;33.25;15.80;;;17.00;99.90;;;;;;4242665;27;20505;-83
2023/10/10 08:53:16;;;;;;;29.30;13.90;;;17.10;99.90;;;;;;4230077;28;20122;-83
2023/10/10 08:55:25;;;;;;;28.83;14.98;;;17.10;99.90;;;;;;4230421;28;20052;-84
2023/10/10 08:57:27;;;;;;;29.08;15.25;;;17.20;99.90;;;;;;4230380;28;20467;-83
2023/10/10 08:59:29;;;;;;;29.33;15.35;;;17.30;99.90;;;;;;4229962;28;20108;-83
2023/10/10 09:01:35;;;;;;;31.33;14.80;;;17.40;99.90;;;;;;4229794;28;20094;-83
2023/10/10 09:03:36;;;;;;;25.40;14.18;;;17.70;99.90;;;;;;4247798;27;20157;-84
2023/10/10 09:05:37;;;;;;;33.17;15.00;;;18.20;99.90;;;;;;4230022;28;20051;-84
2023/10/10 09:07:42;;;;;;;24.65;13.32;;;18.50;99.90;;;;;;4229586;28;20480;-84
2023/10/10 09:09:54;;;;;;;33.50;13.90;;;18.90;99.90;;;;;;4230582;28;20048;-83
2023/10/10 09:11:56;;;;;;;24.52;13.82;;;19.50;99.90;;;;;;4248411;27;20043;-84
2023/10/10 09:13:57;;;;;;;23.33;13.07;;;20.00;99.90;;;;;;4248938;27;20054;-84
2023/10/10 09:15:57;;;;;;;25.88;13.93;;;20.00;99.90;;;;;;4248848;27;20562;-83
2023/10/10 09:18:17;;;;;;;24.23;12.20;;;19.80;99.90;;;;;;4229988;28;20458;-83
2023/10/10 09:20:28;;;;;;;25.80;12.77;;;19.50;99.90;;;;;;4248213;27;20159;-83
2023/10/10 09:22:42;;;;;;;28.40;14.15;;;19.30;99.90;;;;;;4248367;27;20073;-83
2023/10/10 09:24:44;;;;;;;27.90;13.90;;;19.20;99.90;;;;;;4248121;27;20043;-83
2023/10/10 09:26:50;;;;;;;30.27;13.80;;;19.00;99.90;;;;;;4247835;27;20402;-84
2023/10/10 09:29:03;;;;;;;28.38;13.90;;;18.90;99.90;;;;;;4229653;28;20123;-84
2023/10/10 09:31:12;;;;;;;29.17;14.85;;;18.90;99.90;;;;;;4229654;28;20052;-84
2023/10/10 09:33:13;;;;;;;;;;;18.90;99.90;;;;;;4229935;28;20123;-84
2023/10/10 09:35:14;;;;;;;28.83;15.20;;;19.00;99.90;;;;;;4229743;28;19920;-84
2023/10/10 09:37:17;;;;;;;35.58;16.30;;;19.30;99.90;;;;;;4247904;27;20479;-83
2023/10/10 09:39:36;;;;;;;28.80;14.73;;;19.60;99.90;;;;;;4229117;28;20130;-83
2023/10/10 09:42:00;;;;;;;29.40;15.40;;;19.90;99.90;;;;;;4247512;28;20549;-84
2023/10/10 09:46:36;;;;;;;34.58;17.17;;;20.20;99.90;;;;;;4247603;28;20479;-84
2023/10/10 09:51:08;;;;;;;33.92;15.95;;;20.50;99.90;;;;;;4247497;28;20051;-84
2023/10/10 09:53:19;;;;;;;32.45;16.35;;;20.40;99.90;;;;;;4246947;28;20167;-84
2023/10/10 09:57:26;;;;;;;30.27;15.30;;;20.30;99.90;;;;;;4247894;28;20115;-84
2023/10/10 09:59:28;;;;;;;32.83;16.92;;;20.30;99.90;;;;;;4247775;28;20484;-84
2023/10/10 10:01:29;;;;;;;33.15;16.13;;;20.30;99.90;;;;;;4247419;28;20058;-84
2023/10/10 10:05:31;;;;;;;33.20;15.82;;;20.20;99.90;;;;;;4247506;28;20061;-83
2023/10/10 10:08:05;;;;;;;32.17;15.02;;;20.20;99.90;;;;;;4228890;28;20059;-83
2023/10/10 10:10:59;;;;;;;29.90;15.52;;;20.40;99.90;;;;;;4247657;28;20100;-84
2023/10/10 10:13:13;;;;;;;28.90;15.65;;;20.40;99.90;;;;;;4243216;28;20507;-83
2023/10/10 10:15:48;;;;;;;31.67;15.18;;;20.40;99.90;;;;;;4229046;28;20058;-84
2023/10/10 10:17:49;;;;;;;36.40;16.30;;;20.40;99.90;;;;;;4228409;28;20104;-84
2023/10/10 10:19:49;;;;;;;26.45;14.50;;;20.40;99.90;;;;;;4231867;28;20051;-84
2023/10/10 10:22:08;;;;;;;32.80;15.07;;;20.40;99.90;;;;;;4232298;28;20535;-83
2023/10/10 10:24:26;;;;;;;35.22;16.48;;;20.50;99.90;;;;;;4232567;28;20051;-84
2023/10/10 10:26:40;;;;;;;32.73;16.00;;;20.60;99.90;;;;;;4232428;28;20547;-84
2023/10/10 10:28:42;;;;;;;30.35;14.02;;;20.70;99.90;;;;;;4232275;28;20044;-83
2023/10/10 10:30:51;;;;;;;35.42;15.63;;;21.00;99.90;;;;;;4232343;28;20039;-84
2023/10/10 10:32:59;;;;;;;29.45;14.73;;;21.10;99.90;;;;;;4249868;27;20047;-84
2023/10/10 10:35:01;;;;;;;36.13;16.17;;;21.20;99.90;;;;;;4250551;27;20039;-83
2023/10/10 10:37:13;;;;;;;29.67;14.45;;;21.30;99.90;;;;;;4231921;28;20051;-84
2023/10/10 10:39:34;;;;;;;30.35;14.48;;;21.30;99.90;;;;;;4231870;28;20044;-83
2023/10/10 10:41:42;;;;;;;30.33;14.13;;;21.50;99.90;;;;;;4231790;28;20128;-83
2023/10/10 10:43:51;;;;;;;30.83;14.90;;;21.50;99.90;;;;;;4214844;28;20141;-83
2023/10/10 10:46:05;;;;;;;31.90;14.52;;;21.70;99.90;;;;;;4232042;28;20588;-83
2023/10/10 10:48:11;;;;;;;28.63;14.75;;;21.80;99.90;;;;;;4232103;28;20047;-83
2023/10/10 10:50:28;;;;;;;33.08;15.68;;;22.00;99.90;;;;;;4249806;27;20461;-83
2023/10/10 10:52:45;;;;;;;32.78;15.65;;;22.20;99.90;;;;;;4250048;27;20547;-83
2023/10/10 10:54:59;;;;;;;32.53;14.90;;;22.20;99.90;;;;;;4231996;28;20051;-82
2023/10/10 10:57:02;;;;;;;30.88;14.30;;;22.20;99.90;;;;;;4231475;28;20040;-82
2023/10/10 10:59:12;;;;;;;27.80;14.02;;;22.30;99.90;;;;;;4249935;27;20126;-83
2023/10/10 11:01:21;;;;;;;31.00;15.18;;;22.40;99.90;;;;;;4250200;27;20544;-82
2023/10/10 11:03:24;;;;;;;28.55;14.38;;;22.50;99.90;;;;;;4215047;28;20048;-82
2023/10/10 11:05:27;;;;;;;30.23;15.02;;;22.70;99.90;;;;;;4231694;28;20036;-83
2023/10/10 11:07:40;;;;;;;30.58;14.68;;;22.70;99.90;;;;;;4249330;27;20047;-82
2023/10/10 11:10:06;;;;;;;29.65;14.10;;;22.90;99.90;;;;;;4249835;27;20515;-83
2023/10/10 11:12:07;;;;;;;29.05;14.85;;;22.80;99.90;;;;;;4249689;27;20058;-82
2023/10/10 11:14:18;;;;;;;27.00;12.80;;;22.80;99.90;;;;;;4249705;27;20042;-82
2023/10/10 11:16:23;;;;;;;31.55;14.95;;;22.50;99.90;;;;;;4249534;27;20047;-82
2023/10/10 11:18:34;;;;;;;30.60;14.55;;;22.50;99.90;;;;;;4231790;28;20052;-84
2023/10/10 11:20:56;;;;;;;31.15;14.52;;;22.50;99.90;;;;;;4249729;27;20051;-84
2023/10/10 11:23:11;;;;;;;28.33;14.38;;;22.60;99.90;;;;;;4249678;27;20053;-83
2023/10/10 11:25:41;;;;;;;32.33;15.40;;;22.60;99.90;;;;;;4249500;27;20075;-83
2023/10/10 11:27:44;;;;;;;34.70;16.48;;;22.50;99.90;;;;;;4231366;28;20043;-84
2023/10/10 11:30:00;;;;;;;27.63;15.43;;;22.30;99.90;;;;;;4248574;27;20080;-83
2023/10/10 11:32:08;;;;;;;31.58;14.50;;;22.20;99.90;;;;;;4249236;27;20047;-84
2023/10/10 11:34:10;;;;;;;27.23;14.27;;;22.20;99.90;;;;;;4249603;27;20494;-83
2023/10/10 11:36:37;;;;;;;31.08;15.60;;;22.30;99.90;;;;;;4249674;27;20485;-83
2023/10/10 11:38:39;;;;;;;30.50;14.75;;;22.50;99.90;;;;;;4231191;28;20054;-83
2023/10/10 11:40:40;;;;;;;25.50;14.43;;;;;;;;;;4249222;27;20379;-83
2023/10/10 11:42:47;;;;;;;28.98;14.15;;;;;;;;;;4249403;27;20453;-83
2023/10/10 11:44:53;;;;;;;33.25;13.43;;;;;;;;;;4249449;27;20503;-83
2023/10/10 11:47:07;;;;;;;28.42;13.45;;;;;;;;;;4249571;27;20054;-83
2023/10/10 11:49:15;;;;;;;28.17;14.30;;;;;;;;;;4249072;27;20168;-83
2023/10/10 11:51:32;;;;;;;28.95;13.65;;;22.60;99.90;;;;;;4249214;27;20058;-83
2023/10/10 11:53:36;;;;;;;27.92;13.10;;;23.20;99.90;;;;;;4249120;27;20079;-83
2023/10/10 11:55:40;;;;;;;28.65;15.15;;;23.10;99.90;;;;;;4230949;28;20047;-84
2023/10/10 11:57:41;;;;;;;25.92;14.55;;;23.30;99.90;;;;;;4249326;27;20087;-83
2023/10/10 11:59:44;;;;;;;26.73;13.30;;;23.30;99.90;;;;;;4249525;27;20479;-84
2023/10/10 12:02:07;;;;;;;25.30;13.25;;;23.30;99.90;;;;;;4249172;27;20047;-83
2023/10/10 12:04:21;;;;;;;30.30;13.68;;;23.10;99.90;;;;;;4230740;28;20052;-83
2023/10/10 12:06:26;;;;;;;30.40;15.75;;;23.00;99.90;;;;;;4249478;27;20043;-83
2023/10/10 12:08:27;;;;;;;30.73;13.98;;;22.80;99.90;;;;;;4213817;28;20051;-83
2023/10/10 12:12:49;;;;;;;35.40;12.63;;;22.90;99.90;;;;;;4249397;27;20075;-83
2023/10/10 12:14:50;;;;;;;25.10;12.80;;;23.00;99.90;;;;;;4249338;27;20091;-83
2023/10/10 12:17:08;;;;;;;27.48;13.05;;;23.30;99.90;;;;;;4250710;27;20057;-83
2023/10/10 12:19:09;;;;;;;27.42;12.68;;;;;;;;;;4231838;28;20043;-83
2023/10/10 12:21:21;;;;;;;27.30;13.52;;;;;;;;;;4249035;27;20047;-83
2023/10/10 12:23:23;;;;;;;25.67;13.70;;;;;;;;;;4249052;27;20043;-83
2023/10/10 12:25:24;;;;;;;26.40;13.30;;;23.50;99.90;;;;;;4248596;27;20438;-84
2023/10/10 12:27:29;;;;;;;23.48;12.00;;;23.40;99.90;;;;;;4214171;28;20074;-84
2023/10/10 12:29:30;;;;;;;26.70;13.43;;;23.30;99.90;;;;;;4248726;27;20122;-83
2023/10/10 12:31:34;;;;;;;24.95;12.30;;;23.20;99.90;;;;;;4230590;28;20396;-83
2023/10/10 12:33:38;;;;;;;28.17;13.82;;;23.30;99.90;;;;;;4249015;27;20040;-83
2023/10/10 12:35:47;;;;;;;24.10;13.63;;;23.30;99.90;;;;;;4248911;27;20096;-83
2023/10/10 12:37:48;;;;;;;22.38;12.40;;;23.30;99.90;;;;;;4230156;28;20043;-83
2023/10/10 12:39:51;;;;;;;28.85;13.70;;;;;;;;;;4248809;27;20114;-83
2023/10/10 12:41:53;;;;;;;24.15;12.32;;;;;;;;;;4248531;27;20502;-83
2023/10/10 12:43:54;;;;;;;30.10;13.15;;;;;;;;;;4248667;27;20092;-83
2023/10/10 12:45:55;;;;;;;24.98;13.55;;;;;;;;;;4248063;27;20483;-83
2023/10/10 12:47:57;;;;;;;26.27;13.30;;;23.30;99.90;;;;;;4248458;27;20391;-83
2023/10/10 12:50:04;;;;;;;24.08;12.20;;;23.80;99.90;;;;;;4248186;27;20402;-83
2023/10/10 12:52:11;;;;;;;26.90;14.60;;;;;;;;;;4248418;27;20071;-83
2023/10/10 12:54:15;;;;;;;20.55;11.95;;;23.90;99.90;;;;;;4247692;27;20047;-83
2023/10/10 12:56:18;;;;;;;23.88;12.73;;;23.80;99.90;;;;;;4248495;27;20130;-83
2023/10/10 12:58:22;;;;;;;24.83;12.07;;;23.80;99.90;;;;;;4248399;27;20122;-83
2023/10/10 13:00:23;;;;;;;26.27;13.02;;;23.70;99.90;;;;;;4230265;28;20051;-83
2023/10/10 13:02:26;;;;;;;32.92;12.43;;;23.50;99.90;;;;;;4248051;27;20102;-83
2023/10/10 13:04:32;;;;;;;19.45;11.50;;;23.30;99.90;;;;;;4248256;27;20047;-83
2023/10/10 13:06:35;;;;;;;24.40;11.82;;;23.20;99.90;;;;;;4248228;27;20506;-83
2023/10/10 13:08:38;;;;;;;23.38;12.10;;;23.20;99.90;;;;;;4229756;28;20036;-83
2023/10/10 13:10:39;;;;;;;22.92;11.35;;;23.10;99.90;;;;;;4229694;28;20056;-83
2023/10/10 13:12:45;;;;;;;19.40;10.90;;;23.00;99.90;;;;;;4248417;27;20662;-83
2023/10/10 13:14:53;;;;;;;23.65;11.10;;;23.00;99.90;;;;;;4229821;28;20155;-83
2023/10/10 13:17:05;;;;;;;27.02;10.93;;;22.90;99.90;;;;;;4230121;28;20122;-83
2023/10/10 13:19:06;;;;;;;20.85;10.73;;;22.90;99.90;;;;;;4247708;27;20282;-83